sensor_id;sensor_type;location;lat;lon;timestamp;pressure;altitude;pressure_sealevel;temperature;humidity
59939;BME280;45801;51.810;19.444;2023-06-22T00:01:19;99248.61;;;21.38;81.08
59939;BME280;45801;51.810;19.444;2023-06-22T00:03:47;99251.10;;;21.34;81.28
59939;BME280;45801;51.810;19.444;2023-06-22T00:06:14;99252.35;;;21.33;81.41
59939;BME280;45801;51.810;19.444;2023-06-22T00:08:40;99256.27;;;21.31;81.43
59939;BME280;45801;51.810;19.444;2023-06-22T00:11:07;99256.63;;;21.29;81.44
59939;BME280;45801;51.810;19.444;2023-06-22T00:13:34;99259.11;;;21.29;81.53
59939;BME280;45801;51.810;19.444;2023-06-22T00:16:02;99259.66;;;21.28;81.60
59939;BME280;45801;51.810;19.444;2023-06-22T00:18:29;99254.66;;;21.27;81.74
59939;BME280;45801;51.810;19.444;2023-06-22T00:20:57;99256.27;;;21.24;81.82
59939;BME280;45801;51.810;19.444;2023-06-22T00:23:24;99253.07;;;21.23;81.64
59939;BME280;45801;51.810;19.444;2023-06-22T00:25:51;99254.67;;;21.23;81.41
59939;BME280;45801;51.810;19.444;2023-06-22T00:28:18;99256.09;;;21.21;81.46
59939;BME280;45801;51.810;19.444;2023-06-22T00:30:44;99252.52;;;21.18;81.60
59939;BME280;45801;51.810;19.444;2023-06-22T00:33:12;99253.21;;;21.16;81.60
59939;BME280;45801;51.810;19.444;2023-06-22T00:35:38;99255.01;;;21.14;81.66
59939;BME280;45801;51.810;19.444;2023-06-22T00:38:07;99261.95;;;21.12;81.79
59939;BME280;45801;51.810;19.444;2023-06-22T00:40:35;99264.45;;;21.10;81.74
59939;BME280;45801;51.810;19.444;2023-06-22T00:43:02;99260.70;;;21.08;81.97
59939;BME280;45801;51.810;19.444;2023-06-22T00:45:28;99263.20;;;21.06;81.82
59939;BME280;45801;51.810;19.444;2023-06-22T00:47:58;99266.39;;;21.03;81.89
59939;BME280;45801;51.810;19.444;2023-06-22T00:50:27;99269.59;;;21.01;82.00
59939;BME280;45801;51.810;19.444;2023-06-22T00:52:56;99271.55;;;20.99;82.18
59939;BME280;45801;51.810;19.444;2023-06-22T00:55:24;99269.95;;;20.95;82.38
59939;BME280;45801;51.810;19.444;2023-06-22T00:57:52;99271.90;;;20.92;82.42
59939;BME280;45801;51.810;19.444;2023-06-22T01:00:23;99268.86;;;20.89;82.53
59939;BME280;45801;51.810;19.444;2023-06-22T01:02:52;99268.15;;;20.87;82.35
59939;BME280;45801;51.810;19.444;2023-06-22T01:05:21;99262.97;;;20.85;82.70
59939;BME280;45801;51.810;19.444;2023-06-22T01:08:08;99261.54;;;20.82;82.76
59939;BME280;45801;51.810;19.444;2023-06-22T01:10:54;99259.05;;;20.77;82.90
59939;BME280;45801;51.810;19.444;2023-06-22T01:13:35;99254.41;;;20.73;83.41
59939;BME280;45801;51.810;19.444;2023-06-22T01:21:52;99265.53;;;20.57;83.73
59939;BME280;45801;51.810;19.444;2023-06-22T01:24:30;99270.52;;;20.55;83.42
59939;BME280;45801;51.810;19.444;2023-06-22T01:29:58;99269.08;;;20.52;83.30
59939;BME280;45801;51.810;19.444;2023-06-22T01:32:30;99266.92;;;20.52;83.43
59939;BME280;45801;51.810;19.444;2023-06-22T01:35:00;99267.64;;;20.50;83.57
59939;BME280;45801;51.810;19.444;2023-06-22T01:37:28;99273.34;;;20.50;83.55
59939;BME280;45801;51.810;19.444;2023-06-22T01:39:56;99275.83;;;20.49;83.55
59939;BME280;45801;51.810;19.444;2023-06-22T01:42:24;99279.02;;;20.47;83.51
59939;BME280;45801;51.810;19.444;2023-06-22T01:44:53;99280.96;;;20.45;83.53
59939;BME280;45801;51.810;19.444;2023-06-22T01:47:21;99280.77;;;20.44;83.13
59939;BME280;45801;51.810;19.444;2023-06-22T01:49:48;99280.08;;;20.44;83.16
59939;BME280;45801;51.810;19.444;2023-06-22T01:52:15;99287.72;;;20.43;83.21
59939;BME280;45801;51.810;19.444;2023-06-22T01:54:42;99287.90;;;20.41;83.13
59939;BME280;45801;51.810;19.444;2023-06-22T01:57:08;99287.52;;;20.39;83.06
59939;BME280;45801;51.810;19.444;2023-06-22T01:59:49;99284.84;;;20.36;83.39
59939;BME280;45801;51.810;19.444;2023-06-22T02:02:21;99286.25;;;20.34;83.34
59939;BME280;45801;51.810;19.444;2023-06-22T02:05:04;99291.04;;;20.30;83.56
59939;BME280;45801;51.810;19.444;2023-06-22T02:07:34;99294.59;;;20.28;83.22
59939;BME280;45801;51.810;19.444;2023-06-22T02:10:06;99294.58;;;20.26;83.12
59939;BME280;45801;51.810;19.444;2023-06-22T02:12:34;99295.48;;;20.26;83.07
59939;BME280;45801;51.810;19.444;2023-06-22T02:15:02;99296.52;;;20.24;82.63
59939;BME280;45801;51.810;19.444;2023-06-22T02:17:29;99294.91;;;20.23;82.81
59939;BME280;45801;51.810;19.444;2023-06-22T02:20:02;99300.59;;;20.21;82.77
59939;BME280;45801;51.810;19.444;2023-06-22T02:22:30;99302.55;;;20.18;82.64
59939;BME280;45801;51.810;19.444;2023-06-22T02:24:57;99297.73;;;20.17;82.35
59939;BME280;45801;51.810;19.444;2023-06-22T02:27:24;99300.02;;;20.14;82.30
59939;BME280;45801;51.810;19.444;2023-06-22T02:29:52;99302.14;;;20.11;82.30
59939;BME280;45801;51.810;19.444;2023-06-22T02:32:18;99304.45;;;20.09;82.39
59939;BME280;45801;51.810;19.444;2023-06-22T02:34:45;99304.25;;;20.08;82.48
59939;BME280;45801;51.810;19.444;2023-06-22T02:37:14;99311.19;;;20.08;81.91
59939;BME280;45801;51.810;19.444;2023-06-22T02:39:41;99319.38;;;20.08;81.82
59939;BME280;45801;51.810;19.444;2023-06-22T02:42:07;99322.20;;;20.06;81.73
59939;BME280;45801;51.810;19.444;2023-06-22T02:44:34;99325.21;;;20.05;81.75
59939;BME280;45801;51.810;19.444;2023-06-22T02:47:01;99326.09;;;20.03;81.59
59939;BME280;45801;51.810;19.444;2023-06-22T02:49:28;99331.06;;;20.01;81.47
59939;BME280;45801;51.810;19.444;2023-06-22T02:51:54;99333.00;;;19.99;81.40
59939;BME280;45801;51.810;19.444;2023-06-22T02:54:21;99341.34;;;19.96;81.45
59939;BME280;45801;51.810;19.444;2023-06-22T02:56:48;99341.32;;;19.94;81.44
59939;BME280;45801;51.810;19.444;2023-06-22T02:59:14;99342.02;;;19.91;81.32
59939;BME280;45801;51.810;19.444;2023-06-22T03:01:41;99343.06;;;19.90;81.45
59939;BME280;45801;51.810;19.444;2023-06-22T03:04:08;99343.41;;;19.88;81.31
59939;BME280;45801;51.810;19.444;2023-06-22T03:06:35;99343.59;;;19.87;81.34
59939;BME280;45801;51.810;19.444;2023-06-22T03:09:03;99340.02;;;19.85;81.08
59939;BME280;45801;51.810;19.444;2023-06-22T03:11:31;99339.48;;;19.83;81.01
59939;BME280;45801;51.810;19.444;2023-06-22T03:13:59;99338.05;;;19.82;81.03
59939;BME280;45801;51.810;19.444;2023-06-22T03:16:27;99339.61;;;19.80;80.92
59939;BME280;45801;51.810;19.444;2023-06-22T03:18:53;99344.73;;;19.77;81.28
59939;BME280;45801;51.810;19.444;2023-06-22T03:21:22;99347.54;;;19.75;81.14
59939;BME280;45801;51.810;19.444;2023-06-22T03:23:49;99350.22;;;19.75;80.88
59939;BME280;45801;51.810;19.444;2023-06-22T03:26:18;99355.33;;;19.69;80.71
59939;BME280;45801;51.810;19.444;2023-06-22T03:28:46;99360.80;;;19.66;80.67
59939;BME280;45801;51.810;19.444;2023-06-22T03:31:12;99366.66;;;19.65;80.81
59939;BME280;45801;51.810;19.444;2023-06-22T03:33:39;99370.39;;;19.65;80.95
59939;BME280;45801;51.810;19.444;2023-06-22T03:36:06;99372.87;;;19.65;80.74
59939;BME280;45801;51.810;19.444;2023-06-22T03:38:33;99365.41;;;19.66;80.48
59939;BME280;45801;51.810;19.444;2023-06-22T03:41:00;99359.73;;;19.66;80.24
59939;BME280;45801;51.810;19.444;2023-06-22T03:43:26;99362.59;;;19.67;80.19
59939;BME280;45801;51.810;19.444;2023-06-22T03:45:53;99370.94;;;19.67;80.18
59939;BME280;45801;51.810;19.444;2023-06-22T03:48:19;99370.05;;;19.68;80.04
59939;BME280;45801;51.810;19.444;2023-06-22T03:50:46;99372.02;;;19.68;79.93
59939;BME280;45801;51.810;19.444;2023-06-22T03:53:12;99368.98;;;19.69;80.03
59939;BME280;45801;51.810;19.444;2023-06-22T03:55:47;99367.58;;;19.69;79.74
59939;BME280;45801;51.810;19.444;2023-06-22T03:58:15;99371.66;;;19.70;79.78
59939;BME280;45801;51.810;19.444;2023-06-22T04:00:41;99380.73;;;19.70;79.52
59939;BME280;45801;51.810;19.444;2023-06-22T04:03:08;99383.58;;;19.70;79.63
59939;BME280;45801;51.810;19.444;2023-06-22T04:05:41;99385.55;;;19.72;79.80
59939;BME280;45801;51.810;19.444;2023-06-22T04:08:08;99388.95;;;19.74;79.74
59939;BME280;45801;51.810;19.444;2023-06-22T04:10:34;99388.60;;;19.75;79.52
59939;BME280;45801;51.810;19.444;2023-06-22T04:13:01;99385.95;;;19.76;79.32
59939;BME280;45801;51.810;19.444;2023-06-22T04:15:27;99384.90;;;19.77;79.33
59939;BME280;45801;51.810;19.444;2023-06-22T04:17:55;99386.33;;;19.79;79.08
59939;BME280;45801;51.810;19.444;2023-06-22T04:20:22;99392.58;;;19.80;78.79
59939;BME280;45801;51.810;19.444;2023-06-22T04:22:49;99394.73;;;19.81;78.92
59939;BME280;45801;51.810;19.444;2023-06-22T04:25:15;99395.09;;;19.83;79.14
59939;BME280;45801;51.810;19.444;2023-06-22T04:27:42;99404.89;;;19.83;78.68
59939;BME280;45801;51.810;19.444;2023-06-22T04:30:08;99411.81;;;19.84;78.53
59939;BME280;45801;51.810;19.444;2023-06-22T04:32:35;99414.49;;;19.85;78.44
59939;BME280;45801;51.810;19.444;2023-06-22T04:35:06;99415.38;;;19.85;77.37
59939;BME280;45801;51.810;19.444;2023-06-22T04:37:33;99415.38;;;19.86;77.51
59939;BME280;45801;51.810;19.444;2023-06-22T04:40:00;99411.65;;;19.87;77.61
59939;BME280;45801;51.810;19.444;2023-06-22T04:42:26;99417.34;;;19.87;76.67
59939;BME280;45801;51.810;19.444;2023-06-22T04:44:53;99416.61;;;19.85;76.47
59939;BME280;45801;51.810;19.444;2023-06-22T04:47:20;99411.83;;;19.86;77.19
59939;BME280;45801;51.810;19.444;2023-06-22T04:49:46;99415.58;;;19.87;76.56
59939;BME280;45801;51.810;19.444;2023-06-22T04:52:14;99415.41;;;19.88;76.34
59939;BME280;45801;51.810;19.444;2023-06-22T04:54:44;99416.14;;;19.90;76.59
59939;BME280;45801;51.810;19.444;2023-06-22T04:57:14;99416.33;;;19.92;75.84
59939;BME280;45801;51.810;19.444;2023-06-22T04:59:41;99417.02;;;19.92;75.34
59939;BME280;45801;51.810;19.444;2023-06-22T05:02:08;99417.39;;;19.91;75.51
59939;BME280;45801;51.810;19.444;2023-06-22T05:04:34;99417.57;;;19.92;75.19
59939;BME280;45801;51.810;19.444;2023-06-22T05:07:07;99423.28;;;19.95;75.74
59939;BME280;45801;51.810;19.444;2023-06-22T05:09:33;99428.80;;;19.95;75.43
59939;BME280;45801;51.810;19.444;2023-06-22T05:12:02;99425.94;;;19.93;74.23
59939;BME280;45801;51.810;19.444;2023-06-22T05:14:29;99422.50;;;19.87;73.75
59939;BME280;45801;51.810;19.444;2023-06-22T05:16:56;99420.89;;;19.86;74.36
59939;BME280;45801;51.810;19.444;2023-06-22T05:19:25;99417.86;;;19.86;74.53
59939;BME280;45801;51.810;19.444;2023-06-22T05:21:57;99418.95;;;19.88;74.86
59939;BME280;45801;51.810;19.444;2023-06-22T05:24:24;99417.38;;;19.91;74.72
59939;BME280;45801;51.810;19.444;2023-06-22T05:26:50;99418.83;;;19.94;74.88
59939;BME280;45801;51.810;19.444;2023-06-22T05:29:17;99418.66;;;19.96;73.91
59939;BME280;45801;51.810;19.444;2023-06-22T05:31:43;99423.67;;;19.99;74.18
59939;BME280;45801;51.810;19.444;2023-06-22T05:34:09;99429.04;;;20.03;74.31
59939;BME280;45801;51.810;19.444;2023-06-22T05:36:36;99430.49;;;20.07;73.95
59939;BME280;45801;51.810;19.444;2023-06-22T05:39:11;99431.58;;;20.10;74.10
59939;BME280;45801;51.810;19.444;2023-06-22T05:41:39;99433.21;;;20.15;74.61
59939;BME280;45801;51.810;19.444;2023-06-22T05:44:05;99435.39;;;20.20;74.24
59939;BME280;45801;51.810;19.444;2023-06-22T05:46:32;99433.83;;;20.24;74.36
59939;BME280;45801;51.810;19.444;2023-06-22T05:48:59;99435.63;;;20.26;73.65
59939;BME280;45801;51.810;19.444;2023-06-22T05:51:25;99436.52;;;20.28;73.16
59939;BME280;45801;51.810;19.444;2023-06-22T05:53:52;99438.33;;;20.30;73.25
59939;BME280;45801;51.810;19.444;2023-06-22T05:56:18;99437.47;;;20.35;73.27
59939;BME280;45801;51.810;19.444;2023-06-22T05:58:46;99437.67;;;20.39;73.51
59939;BME280;45801;51.810;19.444;2023-06-22T06:01:13;99439.30;;;20.43;73.14
59939;BME280;45801;51.810;19.444;2023-06-22T06:03:41;99441.27;;;20.46;73.41
59939;BME280;45801;51.810;19.444;2023-06-22T06:06:08;99442.73;;;20.52;73.23
59939;BME280;45801;51.810;19.444;2023-06-22T06:08:34;99440.81;;;20.57;73.17
59939;BME280;45801;51.810;19.444;2023-06-22T06:11:01;99436.56;;;20.62;73.04
59939;BME280;45801;51.810;19.444;2023-06-22T06:13:27;99441.26;;;20.68;72.83
59939;BME280;45801;51.810;19.444;2023-06-22T06:15:54;99444.15;;;20.76;72.89
59939;BME280;45801;51.810;19.444;2023-06-22T06:18:23;99444.73;;;20.82;72.37
59939;BME280;45801;51.810;19.444;2023-06-22T06:20:50;99437.27;;;20.87;71.75
59939;BME280;45801;51.810;19.444;2023-06-22T06:23:16;99432.84;;;20.90;70.25
59939;BME280;45801;51.810;19.444;2023-06-22T06:25:43;99436.41;;;20.92;69.82
59939;BME280;45801;51.810;19.444;2023-06-22T06:28:09;99440.16;;;20.95;70.18
59939;BME280;45801;51.810;19.444;2023-06-22T06:30:36;99437.50;;;20.97;69.95
59939;BME280;45801;51.810;19.444;2023-06-22T06:33:03;99442.50;;;21.02;69.88
59939;BME280;45801;51.810;19.444;2023-06-22T06:35:35;99448.41;;;21.07;69.93
59939;BME280;45801;51.810;19.444;2023-06-22T06:38:02;99443.78;;;21.11;69.55
59939;BME280;45801;51.810;19.444;2023-06-22T06:40:28;99443.27;;;21.15;68.47
59939;BME280;45801;51.810;19.444;2023-06-22T06:42:55;99445.77;;;21.18;69.28
59939;BME280;45801;51.810;19.444;2023-06-22T06:45:23;99444.20;;;21.25;69.98
59939;BME280;45801;51.810;19.444;2023-06-22T06:47:50;99442.27;;;21.32;69.76
59939;BME280;45801;51.810;19.444;2023-06-22T06:50:18;99444.41;;;21.39;69.05
59939;BME280;45801;51.810;19.444;2023-06-22T06:52:44;99447.29;;;21.44;67.61
59939;BME280;45801;51.810;19.444;2023-06-22T06:55:11;99445.73;;;21.49;68.39
59939;BME280;45801;51.810;19.444;2023-06-22T06:57:39;99442.36;;;21.56;67.89
59939;BME280;45801;51.810;19.444;2023-06-22T07:00:10;99443.44;;;21.62;66.55
59939;BME280;45801;51.810;19.444;2023-06-22T07:02:42;99441.13;;;21.66;66.46
59939;BME280;45801;51.810;19.444;2023-06-22T07:05:10;99440.62;;;21.72;66.77
59939;BME280;45801;51.810;19.444;2023-06-22T07:07:37;99441.86;;;21.78;66.38
59939;BME280;45801;51.810;19.444;2023-06-22T07:10:07;99444.54;;;21.82;66.21
59939;BME280;45801;51.810;19.444;2023-06-22T07:12:34;99441.70;;;21.87;65.11
59939;BME280;45801;51.810;19.444;2023-06-22T07:15:08;99433.85;;;21.93;63.58
59939;BME280;45801;51.810;19.444;2023-06-22T07:17:36;99435.29;;;21.99;64.60
59939;BME280;45801;51.810;19.444;2023-06-22T07:20:04;99434.58;;;22.06;64.25
59939;BME280;45801;51.810;19.444;2023-06-22T07:22:41;99434.39;;;22.11;62.63
59939;BME280;45801;51.810;19.444;2023-06-22T07:25:08;99436.70;;;22.14;61.54
59939;BME280;45801;51.810;19.444;2023-06-22T07:27:39;99433.14;;;22.12;59.37
59939;BME280;45801;51.810;19.444;2023-06-22T07:30:09;99429.22;;;22.13;60.53
59939;BME280;45801;51.810;19.444;2023-06-22T07:32:37;99427.96;;;22.18;62.05
59939;BME280;45801;51.810;19.444;2023-06-22T07:35:03;99421.19;;;22.23;60.33
59939;BME280;45801;51.810;19.444;2023-06-22T07:37:31;99423.31;;;22.27;58.09
59939;BME280;45801;51.810;19.444;2023-06-22T07:39:59;99423.85;;;22.29;58.60
59939;BME280;45801;51.810;19.444;2023-06-22T07:42:26;99420.10;;;22.30;57.13
59939;BME280;45801;51.810;19.444;2023-06-22T07:44:53;99420.11;;;22.30;55.73
59939;BME280;45801;51.810;19.444;2023-06-22T07:47:20;99424.58;;;22.31;56.22
59939;BME280;45801;51.810;19.444;2023-06-22T07:49:51;99424.95;;;22.33;57.44
59939;BME280;45801;51.810;19.444;2023-06-22T07:52:18;99420.67;;;22.36;55.70
59939;BME280;45801;51.810;19.444;2023-06-22T07:54:45;99422.27;;;22.41;56.80
59939;BME280;45801;51.810;19.444;2023-06-22T07:57:12;99426.53;;;22.47;57.98
59939;BME280;45801;51.810;19.444;2023-06-22T07:59:39;99429.39;;;22.54;58.79
59939;BME280;45801;51.810;19.444;2023-06-22T08:02:05;99432.58;;;22.62;57.91
59939;BME280;45801;51.810;19.444;2023-06-22T08:04:32;99427.73;;;22.69;56.61
59939;BME280;45801;51.810;19.444;2023-06-22T08:07:01;99433.43;;;22.77;57.85
59939;BME280;45801;51.810;19.444;2023-06-22T08:09:29;99439.12;;;22.85;56.77
59939;BME280;45801;51.810;19.444;2023-06-22T08:11:59;99443.58;;;22.89;55.43
59939;BME280;45801;51.810;19.444;2023-06-22T08:14:29;99444.29;;;22.92;53.50
59939;BME280;45801;51.810;19.444;2023-06-22T08:16:56;99440.51;;;22.98;52.93
59939;BME280;45801;51.810;19.444;2023-06-22T08:19:23;99439.59;;;23.03;52.14
59939;BME280;45801;51.810;19.444;2023-06-22T08:21:50;99444.42;;;23.08;53.69
59939;BME280;45801;51.810;19.444;2023-06-22T08:24:17;99448.87;;;23.14;53.36
59939;BME280;45801;51.810;19.444;2023-06-22T08:26:43;99450.09;;;23.20;54.83
59939;BME280;45801;51.810;19.444;2023-06-22T08:29:09;99447.38;;;23.28;55.19
59939;BME280;45801;51.810;19.444;2023-06-22T08:31:37;99451.98;;;23.37;54.26
59939;BME280;45801;51.810;19.444;2023-06-22T08:34:03;99450.69;;;23.43;51.73
59939;BME280;45801;51.810;19.444;2023-06-22T08:36:30;99453.18;;;23.48;52.76
59939;BME280;45801;51.810;19.444;2023-06-22T08:38:58;99457.79;;;23.52;51.54
59939;BME280;45801;51.810;19.444;2023-06-22T08:41:27;99460.28;;;23.56;52.05
59939;BME280;45801;51.810;19.444;2023-06-22T08:43:54;99458.83;;;23.61;53.01
59939;BME280;45801;51.810;19.444;2023-06-22T08:46:21;99459.16;;;23.65;52.64
59939;BME280;45801;51.810;19.444;2023-06-22T08:48:49;99467.52;;;23.72;52.60
59939;BME280;45801;51.810;19.444;2023-06-22T08:51:16;99472.47;;;23.79;52.33
59939;BME280;45801;51.810;19.444;2023-06-22T08:53:43;99472.10;;;23.86;52.21
59939;BME280;45801;51.810;19.444;2023-06-22T08:56:11;99468.49;;;23.92;51.53
59939;BME280;45801;51.810;19.444;2023-06-22T08:58:38;99467.20;;;23.97;52.01
59939;BME280;45801;51.810;19.444;2023-06-22T09:01:06;99462.88;;;24.02;51.48
59939;BME280;45801;51.810;19.444;2023-06-22T09:03:33;99461.93;;;24.08;51.76
59939;BME280;45801;51.810;19.444;2023-06-22T09:06:02;99464.02;;;24.14;50.71
59939;BME280;45801;51.810;19.444;2023-06-22T09:08:29;99464.36;;;24.18;47.94
59939;BME280;45801;51.810;19.444;2023-06-22T09:10:56;99463.42;;;24.22;49.10
59939;BME280;45801;51.810;19.444;2023-06-22T09:13:22;99462.32;;;24.26;49.68
59939;BME280;45801;51.810;19.444;2023-06-22T09:15:49;99459.20;;;24.32;49.87
59939;BME280;45801;51.810;19.444;2023-06-22T09:18:15;99461.48;;;24.39;48.03
59939;BME280;45801;51.810;19.444;2023-06-22T09:20:41;99460.19;;;24.43;47.37
59939;BME280;45801;51.810;19.444;2023-06-22T09:23:08;99453.38;;;24.45;45.51
59939;BME280;45801;51.810;19.444;2023-06-22T09:25:34;99449.60;;;24.47;44.50
59939;BME280;45801;51.810;19.444;2023-06-22T09:28:01;99446.70;;;24.49;45.97
59939;BME280;45801;51.810;19.444;2023-06-22T09:30:27;99449.19;;;24.52;46.00
59939;BME280;45801;51.810;19.444;2023-06-22T09:32:54;99444.70;;;24.53;44.04
59939;BME280;45801;51.810;19.444;2023-06-22T09:35:20;99442.89;;;24.57;45.41
59939;BME280;45801;51.810;19.444;2023-06-22T09:37:47;99439.96;;;24.65;46.72
59939;BME280;45801;51.810;19.444;2023-06-22T09:40:13;99433.09;;;24.70;45.17
59939;BME280;45801;51.810;19.444;2023-06-22T09:42:43;99431.59;;;24.77;46.45
59939;BME280;45801;51.810;19.444;2023-06-22T09:45:09;99436.73;;;24.81;45.51
59939;BME280;45801;51.810;19.444;2023-06-22T09:47:36;99430.58;;;24.87;44.51
59939;BME280;45801;51.810;19.444;2023-06-22T09:50:03;99423.70;;;24.93;45.01
59939;BME280;45801;51.810;19.444;2023-06-22T09:52:30;99422.54;;;25.00;45.75
59939;BME280;45801;51.810;19.444;2023-06-22T09:54:56;99427.29;;;25.08;44.80
59939;BME280;45801;51.810;19.444;2023-06-22T09:57:23;99431.64;;;25.17;44.88
59939;BME280;45801;51.810;19.444;2023-06-22T09:59:49;99428.31;;;25.25;43.44
59939;BME280;45801;51.810;19.444;2023-06-22T10:02:16;99423.45;;;25.29;42.80
59939;BME280;45801;51.810;19.444;2023-06-22T10:04:43;99426.80;;;25.34;40.77
59939;BME280;45801;51.810;19.444;2023-06-22T10:07:10;99429.23;;;25.39;39.39
59939;BME280;45801;51.810;19.444;2023-06-22T10:09:36;99430.96;;;25.44;39.57
59939;BME280;45801;51.810;19.444;2023-06-22T10:12:03;99430.95;;;25.45;37.03
59939;BME280;45801;51.810;19.444;2023-06-22T10:14:29;99428.21;;;25.48;38.88
59939;BME280;45801;51.810;19.444;2023-06-22T10:16:56;99423.71;;;25.50;38.30
59939;BME280;45801;51.810;19.444;2023-06-22T10:19:22;99417.02;;;25.52;39.55
59939;BME280;45801;51.810;19.444;2023-06-22T10:21:49;99411.77;;;25.56;39.49
59939;BME280;45801;51.810;19.444;2023-06-22T10:24:15;99413.68;;;25.61;39.76
59939;BME280;45801;51.810;19.444;2023-06-22T10:26:42;99413.41;;;25.67;41.45
59939;BME280;45801;51.810;19.444;2023-06-22T10:29:08;99412.38;;;25.75;42.18
59939;BME280;45801;51.810;19.444;2023-06-22T10:31:35;99413.89;;;25.83;42.94
59939;BME280;45801;51.810;19.444;2023-06-22T10:34:01;99415.19;;;25.90;42.97
59939;BME280;45801;51.810;19.444;2023-06-22T10:36:28;99424.42;;;25.97;42.10
59939;BME280;45801;51.810;19.444;2023-06-22T10:38:54;99430.81;;;26.03;41.56
59939;BME280;45801;51.810;19.444;2023-06-22T10:41:21;99431.45;;;26.07;41.13
59939;BME280;45801;51.810;19.444;2023-06-22T10:43:48;99431.90;;;26.13;41.80
59939;BME280;45801;51.810;19.444;2023-06-22T10:46:15;99435.07;;;26.17;41.48
59939;BME280;45801;51.810;19.444;2023-06-22T10:48:41;99431.77;;;26.21;41.49
59939;BME280;45801;51.810;19.444;2023-06-22T10:51:09;99420.95;;;26.24;41.16
59939;BME280;45801;51.810;19.444;2023-06-22T10:53:35;99414.98;;;26.25;39.65
59939;BME280;45801;51.810;19.444;2023-06-22T10:56:02;99413.56;;;26.25;40.32
59939;BME280;45801;51.810;19.444;2023-06-22T10:58:28;99415.77;;;26.32;42.26
59939;BME280;45801;51.810;19.444;2023-06-22T11:00:55;99416.30;;;26.42;41.87
59939;BME280;45801;51.810;19.444;2023-06-22T11:03:21;99410.57;;;26.52;41.67
59939;BME280;45801;51.810;19.444;2023-06-22T11:05:48;99407.71;;;26.60;41.58
59939;BME280;45801;51.810;19.444;2023-06-22T11:08:14;99405.06;;;26.68;41.41
59939;BME280;45801;51.810;19.444;2023-06-22T11:10:41;99401.66;;;26.77;41.71
59939;BME280;45801;51.810;19.444;2023-06-22T11:13:08;99395.38;;;26.86;40.58
59939;BME280;45801;51.810;19.444;2023-06-22T11:15:36;99392.18;;;26.93;39.71
59939;BME280;45801;51.810;19.444;2023-06-22T11:18:03;99389.18;;;26.98;39.09
59939;BME280;45801;51.810;19.444;2023-06-22T11:20:31;99387.83;;;27.03;39.09
59939;BME280;45801;51.810;19.444;2023-06-22T11:22:59;99385.78;;;27.06;38.62
59939;BME280;45801;51.810;19.444;2023-06-22T11:25:26;99388.63;;;27.08;36.11
59939;BME280;45801;51.810;19.444;2023-06-22T11:27:53;99386.23;;;27.10;38.35
59939;BME280;45801;51.810;19.444;2023-06-22T11:30:20;99385.38;;;27.17;38.51
59939;BME280;45801;51.810;19.444;2023-06-22T11:32:46;99385.23;;;27.23;38.83
59939;BME280;45801;51.810;19.444;2023-06-22T11:35:13;99382.40;;;27.30;38.33
59939;BME280;45801;51.810;19.444;2023-06-22T11:37:40;99378.94;;;27.32;36.97
59939;BME280;45801;51.810;19.444;2023-06-22T11:40:06;99375.45;;;27.36;37.82
59939;BME280;45801;51.810;19.444;2023-06-22T11:42:35;99374.10;;;27.40;37.48
59939;BME280;45801;51.810;19.444;2023-06-22T11:45:02;99371.33;;;27.44;36.91
59939;BME280;45801;51.810;19.444;2023-06-22T11:47:29;99372.13;;;27.48;37.41
59939;BME280;45801;51.810;19.444;2023-06-22T11:49:55;99374.67;;;27.54;38.28
59939;BME280;45801;51.810;19.444;2023-06-22T11:52:22;99380.43;;;27.62;39.24
59939;BME280;45801;51.810;19.444;2023-06-22T11:54:48;99383.88;;;27.69;38.70
59939;BME280;45801;51.810;19.444;2023-06-22T11:57:15;99387.06;;;27.77;38.73
59939;BME280;45801;51.810;19.444;2023-06-22T11:59:41;99382.23;;;27.84;38.40
59939;BME280;45801;51.810;19.444;2023-06-22T12:02:08;99375.95;;;27.90;38.64
59939;BME280;45801;51.810;19.444;2023-06-22T12:04:35;99376.37;;;27.96;38.48
59939;BME280;45801;51.810;19.444;2023-06-22T12:07:03;99373.55;;;28.01;38.45
59939;BME280;45801;51.810;19.444;2023-06-22T12:09:29;99373.59;;;28.07;37.72
59939;BME280;45801;51.810;19.444;2023-06-22T12:11:56;99373.66;;;28.11;38.14
59939;BME280;45801;51.810;19.444;2023-06-22T12:14:22;99368.84;;;28.16;37.89
59939;BME280;45801;51.810;19.444;2023-06-22T12:16:49;99362.95;;;28.20;38.47
59939;BME280;45801;51.810;19.444;2023-06-22T12:19:15;99361.23;;;28.24;37.28
59939;BME280;45801;51.810;19.444;2023-06-22T12:21:42;99360.33;;;28.25;38.24
59939;BME280;45801;51.810;19.444;2023-06-22T12:24:11;99359.65;;;28.30;38.67
59939;BME280;45801;51.810;19.444;2023-06-22T12:26:39;99353.20;;;28.35;38.37
59939;BME280;45801;51.810;19.444;2023-06-22T12:29:05;99351.27;;;28.40;37.97
59939;BME280;45801;51.810;19.444;2023-06-22T12:31:32;99353.58;;;28.41;37.86
59939;BME280;45801;51.810;19.444;2023-06-22T12:33:59;99352.58;;;28.45;38.82
59939;BME280;45801;51.810;19.444;2023-06-22T12:36:25;99347.44;;;28.48;38.69
59939;BME280;45801;51.810;19.444;2023-06-22T12:38:51;99349.51;;;28.52;38.56
59939;BME280;45801;51.810;19.444;2023-06-22T12:41:18;99346.70;;;28.56;37.82
59939;BME280;45801;51.810;19.444;2023-06-22T12:43:44;99345.21;;;28.56;37.82
59939;BME280;45801;51.810;19.444;2023-06-22T12:46:11;99348.30;;;28.56;37.68
59939;BME280;45801;51.810;19.444;2023-06-22T12:48:37;99342.36;;;28.49;36.84
59939;BME280;45801;51.810;19.444;2023-06-22T12:51:09;99348.73;;;28.46;38.31
59939;BME280;45801;51.810;19.444;2023-06-22T12:53:35;99348.23;;;28.46;39.09
59939;BME280;45801;51.810;19.444;2023-06-22T12:56:02;99348.23;;;28.45;37.97
59939;BME280;45801;51.810;19.444;2023-06-22T12:58:28;99350.90;;;28.47;37.15
59939;BME280;45801;51.810;19.444;2023-06-22T13:00:55;99349.35;;;28.50;37.86